CRS3 weather

Calgary / Christiansen Field
Calgary, Alberta, Canada

Public forecast

Using degrees Celsius for public forecast. Weather courtesy of forecast.io.

Closest aviation weather report (METAR) to Calgary / Christiansen Field

Closest report is Calgary International Airport, 18.9 nm (35.0 km) N. Retrieved 2019/12/12 13:00 UTC (23 minutes ago):

CYYC 121300Z 17005KT 15SM BKN130 M09/M10 A2958 RMK AC6 SLP083

Closest aviation forecast (TAF) to Calgary / Christiansen Field

Closest forecast is Calgary International Airport, 18.9 nm (35.0 km) N. Retrieved 2019/12/12 15:41 UTC (0 seconds ago):

TAF CYYC 121438Z 1215/1312 VRB03KT P6SM BKN060 FM121700 VRB03KT P6SM BKN110 BECMG 1220/1222 27008KT FM130200 05005KT 5SM BR SCT004 OVC008 TEMPO 1302/1312 11/2SM BR OVC004 RMK NXT FCST BY 121800Z